createdAt,value
2022-12-03T00:00:35.354Z,100226.78
2022-12-03T00:03:04.024Z,100212.84
2022-12-03T00:05:32.989Z,100223.97
2022-12-03T00:08:01.418Z,100228.22
2022-12-03T00:10:29.833Z,100224.78
2022-12-03T00:12:59.539Z,100221.53
2022-12-03T00:15:27.987Z,100216.47
2022-12-03T00:17:56.402Z,100223.72
2022-12-03T00:20:26.755Z,100225.53
2022-12-03T00:22:55.123Z,100220.91
2022-12-03T00:25:23.508Z,100220.72
2022-12-03T00:27:51.951Z,100225.78
2022-12-03T00:30:21.778Z,100222.16
2022-12-03T00:32:50.843Z,100222.16
2022-12-03T00:35:19.414Z,100218.50
2022-12-03T00:37:47.721Z,100224.56
2022-12-03T00:40:16.457Z,100226.03
2022-12-03T00:42:44.807Z,100227.63
2022-12-03T00:45:13.693Z,100211.88
2022-12-03T00:47:43.446Z,100216.94
2022-12-03T00:50:12.931Z,100216.75
2022-12-03T00:52:41.292Z,100215.13
2022-12-03T00:55:10.715Z,100216.16
2022-12-03T00:57:39.060Z,100211.69
2022-12-03T01:00:09.426Z,100223.81
2022-12-03T01:02:37.848Z,100218.34
2022-12-03T01:05:08.663Z,100220.81
2022-12-03T01:07:37.341Z,100229.31
2022-12-03T01:10:06.894Z,100222.25
2022-12-03T01:12:35.332Z,100225.50
2022-12-03T01:15:03.869Z,100226.50
2022-12-03T01:17:32.391Z,100230.94
2022-12-03T01:20:02.694Z,100221.63
2022-12-03T01:22:32.494Z,100233.75
2022-12-03T01:25:00.860Z,100230.53
2022-12-03T01:27:29.304Z,100224.47
2022-12-03T01:29:57.741Z,100239.97
2022-12-03T01:32:25.434Z,100227.84
2022-12-03T01:34:56.775Z,100232.88
2022-12-03T01:37:27.567Z,100229.19
2022-12-03T01:39:57.493Z,100225.31
2022-12-03T01:42:29.727Z,100234.00
2022-12-03T01:44:59.779Z,100232.97
2022-12-03T01:47:31.329Z,100232.00
2022-12-03T01:50:05.243Z,100231.00
2022-12-03T01:52:38.679Z,100234.44
2022-12-03T01:55:16.357Z,100231.81
2022-12-03T01:57:48.403Z,100238.69
2022-12-03T02:00:20.146Z,100237.88
2022-12-03T02:02:52.286Z,100244.13
2022-12-03T02:05:23.749Z,100243.31
2022-12-03T02:07:53.128Z,100243.31
2022-12-03T02:10:28.128Z,100238.88
2022-12-03T02:12:59.891Z,100237.06
2022-12-03T02:15:28.390Z,100241.50
2022-12-03T02:17:57.728Z,100250.56
2022-12-03T02:20:26.142Z,100245.53
2022-12-03T02:23:00.561Z,100250.34
2022-12-03T02:25:33.743Z,100242.03
2022-12-03T02:28:03.932Z,100234.69
2022-12-03T02:30:33.383Z,100244.78
2022-12-03T02:33:02.647Z,100233.84
2022-12-03T02:35:34.895Z,100237.47
2022-12-03T02:38:12.739Z,100234.84
2022-12-03T02:40:44.629Z,100236.66
2022-12-03T02:43:14.823Z,100241.34
2022-12-03T02:45:45.994Z,100234.53
2022-12-03T02:48:18.450Z,100239.41
2022-12-03T02:50:53.168Z,100233.56
2022-12-03T02:53:26.208Z,100233.34
2022-12-03T02:55:58.390Z,100228.09
2022-12-03T02:58:28.773Z,100235.81
2022-12-03T03:00:57.716Z,100229.75
2022-12-03T03:03:29.205Z,100241.06
2022-12-03T03:05:58.450Z,100239.25
2022-12-03T03:08:28.049Z,100239.47
2022-12-03T03:11:00.436Z,100235.19
2022-12-03T03:13:30.836Z,100243.06
2022-12-03T03:15:59.606Z,100236.81
2022-12-03T03:18:28.072Z,100237.63
2022-12-03T03:20:56.596Z,100224.66
2022-12-03T03:23:25.880Z,100231.56
2022-12-03T03:26:01.092Z,100235.19
2022-12-03T03:28:31.055Z,100230.72
2022-12-03T03:31:01.728Z,100230.72
2022-12-03T03:33:30.502Z,100228.09
2022-12-03T03:36:00.401Z,100231.38
2022-12-03T03:38:30.546Z,100225.09
2022-12-03T03:41:03.269Z,100225.09
2022-12-03T03:43:34.733Z,100235.44
2022-12-03T03:46:05.086Z,100229.19
2022-12-03T03:48:34.542Z,100229.59
2022-12-03T03:51:08.727Z,100229.41
2022-12-03T03:53:38.006Z,100220.53
2022-12-03T03:56:08.928Z,100224.56
2022-12-03T03:58:37.842Z,100217.53
2022-12-03T04:01:06.730Z,100213.47
2022-12-03T04:03:35.950Z,100218.09
2022-12-03T04:06:06.295Z,100213.84
2022-12-03T04:08:34.680Z,100220.91
2022-12-03T04:11:20.385Z,100209.78
2022-12-03T04:13:50.104Z,100216.03
2022-12-03T04:16:18.573Z,100208.16
2022-12-03T04:18:48.688Z,100204.53
2022-12-03T04:21:38.110Z,100207.16
2022-12-03T04:24:08.841Z,100209.16
2022-12-03T04:26:55.214Z,100203.50
2022-12-03T04:29:24.983Z,100219.41
2022-12-03T04:32:10.878Z,100207.09
2022-12-03T04:34:57.579Z,100201.03
2022-12-03T04:37:26.363Z,100202.69
2022-12-03T04:39:54.984Z,100205.31
2022-12-03T04:42:23.555Z,100205.69
2022-12-03T04:44:53.578Z,100203.44
2022-12-03T04:47:23.267Z,100198.63
2022-12-03T04:49:53.282Z,100203.66
2022-12-03T04:52:22.524Z,100198.22
2022-12-03T04:54:51.034Z,100202.47
2022-12-03T04:57:19.576Z,100202.28
2022-12-03T04:59:47.971Z,100202.91
2022-12-03T05:02:17.770Z,100208.59
2022-12-03T05:04:46.251Z,100208.38
2022-12-03T05:07:14.895Z,100206.38
2022-12-03T05:09:43.383Z,100197.69
2022-12-03T05:12:11.781Z,100200.13
2022-12-03T05:14:40.156Z,100196.69
2022-12-03T05:17:08.555Z,100201.78
2022-12-03T05:19:55.621Z,100202.56
2022-12-03T05:22:24.015Z,100198.31
2022-12-03T05:24:52.786Z,100198.13
2022-12-03T05:27:24.131Z,100203.38
2022-12-03T05:29:52.951Z,100207.84
2022-12-03T05:32:21.853Z,100200.13
2022-12-03T05:34:51.924Z,100195.50
2022-12-03T05:37:20.575Z,100195.94
2022-12-03T05:39:48.939Z,100194.13
2022-12-03T05:42:34.815Z,100193.09
2022-12-03T05:45:03.178Z,100191.47
2022-12-03T05:47:31.576Z,100193.91
2022-12-03T05:50:01.353Z,100208.88
2022-12-03T05:52:29.778Z,100194.72
2022-12-03T05:54:58.144Z,100191.28
2022-12-03T05:57:26.498Z,100201.63
2022-12-03T05:59:54.845Z,100199.16
2022-12-03T06:02:23.278Z,100206.06
2022-12-03T06:04:52.037Z,100205.22
2022-12-03T06:07:22.085Z,100199.16
2022-12-03T06:09:50.525Z,100195.56
2022-12-03T06:12:18.915Z,100199.97
2022-12-03T06:14:47.355Z,100190.47
2022-12-03T06:17:15.751Z,100188.66
2022-12-03T06:19:44.177Z,100187.84
2022-12-03T06:22:13.225Z,100188.66
2022-12-03T06:24:42.963Z,100186.03
2022-12-03T06:27:12.414Z,100181.78
2022-12-03T06:29:40.847Z,100187.25
2022-12-03T06:32:09.298Z,100190.69
2022-12-03T06:34:37.666Z,100191.69
2022-12-03T06:37:06.105Z,100188.22
2022-12-03T06:39:34.548Z,100185.00
2022-12-03T06:42:04.821Z,100179.75
2022-12-03T06:44:33.196Z,100183.38
2022-12-03T06:47:01.632Z,100177.28
2022-12-03T06:49:30.157Z,100181.13
2022-12-03T06:51:58.532Z,100174.22
2022-12-03T06:54:27.023Z,100177.28
2022-12-03T06:56:55.403Z,100177.28
2022-12-03T06:59:25.149Z,100183.50
2022-12-03T07:01:53.590Z,100179.47
2022-12-03T07:04:22.032Z,100184.72
2022-12-03T07:06:50.437Z,100183.06
2022-12-03T07:09:18.839Z,100191.34
2022-12-03T07:11:47.212Z,100196.59
2022-12-03T07:14:15.579Z,100206.50
2022-12-03T07:16:45.387Z,100210.31
2022-12-03T07:19:13.835Z,100219.19
2022-12-03T07:21:42.399Z,100223.81
2022-12-03T07:24:11.005Z,100220.38
2022-12-03T07:26:39.418Z,100218.75
2022-12-03T07:29:07.820Z,100222.56
2022-12-03T07:31:36.266Z,100209.81
2022-12-03T07:34:06.032Z,100214.25
2022-12-03T07:36:34.797Z,100211.84
2022-12-03T07:39:03.220Z,100216.28
2022-12-03T07:41:31.606Z,100203.31
2022-12-03T07:44:00.011Z,100207.75
2022-12-03T07:46:28.411Z,100209.78
2022-12-03T07:48:56.800Z,100208.13
2022-12-03T07:51:32.031Z,100209.97
2022-12-03T07:54:00.813Z,100204.09
2022-12-03T07:56:29.157Z,100208.50
2022-12-03T07:58:57.859Z,100219.00
2022-12-03T08:01:26.401Z,100206.72
2022-12-03T08:03:54.828Z,100207.53
2022-12-03T08:06:23.231Z,100210.16
2022-12-03T08:08:53.010Z,100213.59
2022-12-03T08:11:21.420Z,100216.22
2022-12-03T08:13:49.890Z,100212.59
2022-12-03T08:16:21.352Z,100200.25
2022-12-03T08:18:51.328Z,100212.41
2022-12-03T08:21:24.023Z,100201.06
2022-12-03T08:23:53.759Z,100188.16
2022-12-03T08:26:24.671Z,100184.34
2022-12-03T08:28:53.611Z,100184.34
2022-12-03T08:31:28.046Z,100187.56
2022-12-03T08:34:14.586Z,100181.72
2022-12-03T08:36:42.978Z,100184.34
2022-12-03T08:39:30.447Z,100184.72
2022-12-03T08:42:26.620Z,100196.22
2022-12-03T08:44:55.923Z,100187.06
2022-12-03T08:47:26.005Z,100193.16
2022-12-03T08:49:58.114Z,100198.41
2022-12-03T08:52:33.294Z,100203.66
2022-12-03T08:55:33.805Z,100199.59
2022-12-03T08:58:02.232Z,100202.03
2022-12-03T09:00:30.577Z,100206.09
2022-12-03T09:03:02.174Z,100206.72
2022-12-03T09:05:33.465Z,100205.09
2022-12-03T09:08:01.965Z,100204.09
2022-12-03T09:10:31.789Z,100197.84
2022-12-03T09:13:00.145Z,100202.72
2022-12-03T09:15:28.761Z,100205.13
2022-12-03T09:17:57.144Z,100208.78
2022-12-03T09:20:25.537Z,100191.56
2022-12-03T09:22:53.934Z,100192.81
2022-12-03T09:25:22.333Z,100178.88
2022-12-03T09:27:52.136Z,100184.13
2022-12-03T09:30:20.809Z,100169.38
2022-12-03T09:32:49.192Z,100178.06
2022-12-03T09:35:17.722Z,100171.22
2022-12-03T09:37:46.147Z,100180.28
2022-12-03T09:40:15.635Z,100175.03
2022-12-03T09:42:44.067Z,100179.09
2022-12-03T09:45:16.518Z,100172.81
2022-12-03T09:47:47.883Z,100176.25
2022-12-03T09:50:21.371Z,100183.97
2022-12-03T09:52:51.130Z,100183.56
2022-12-03T09:55:24.000Z,100185.38
2022-12-03T09:57:53.739Z,100184.41
2022-12-03T10:00:26.740Z,100178.31
2022-12-03T10:02:58.836Z,100171.44
2022-12-03T10:05:27.594Z,100167.81
2022-12-03T10:08:07.978Z,100167.81
2022-12-03T10:10:36.957Z,100172.06
2022-12-03T10:13:06.678Z,100162.38
2022-12-03T10:15:36.509Z,100165.00
2022-12-03T10:18:22.426Z,100174.28
2022-12-03T10:20:52.445Z,100162.59
2022-12-03T10:23:24.203Z,100156.97
2022-12-03T10:25:56.508Z,100159.38
2022-12-03T10:28:31.906Z,100154.56
2022-12-03T10:31:03.154Z,100149.13
2022-12-03T10:33:35.372Z,100153.19
2022-12-03T10:36:20.410Z,100146.13
2022-12-03T10:39:07.448Z,100148.75
2022-12-03T10:41:36.120Z,100135.41
2022-12-03T10:44:19.974Z,100133.81
2022-12-03T10:47:08.762Z,100139.22
2022-12-03T10:49:37.503Z,100132.63
2022-12-03T10:52:06.898Z,100129.41
2022-12-03T10:54:36.794Z,100121.31
2022-12-03T10:57:05.302Z,100130.63
2022-12-03T10:59:35.219Z,100126.97
2022-12-03T11:02:05.421Z,100122.53
2022-12-03T11:04:37.449Z,100107.78
2022-12-03T11:07:16.488Z,100101.53
2022-12-03T11:09:47.627Z,100103.97
2022-12-03T11:12:22.653Z,100093.25
2022-12-03T11:15:07.366Z,100096.50
2022-12-03T11:17:49.776Z,100093.63
2022-12-03T11:21:04.411Z,100087.41
2022-12-03T11:24:20.314Z,100095.66
2022-12-03T11:27:19.534Z,100088.59
2022-12-03T11:29:55.998Z,100074.44
2022-12-03T11:33:21.700Z,100073.03
2022-12-03T11:36:31.546Z,100076.66
2022-12-03T11:39:09.943Z,100082.53
2022-12-03T11:41:39.654Z,100082.53
2022-12-03T11:44:33.723Z,100078.28
2022-12-03T11:47:14.088Z,100082.16
2022-12-03T11:49:50.090Z,100077.69
2022-12-03T11:52:29.783Z,100075.88
2022-12-03T11:55:04.299Z,100068.59
2022-12-03T11:57:39.203Z,100068.03
2022-12-03T12:00:22.287Z,100069.44
2022-12-03T12:02:56.895Z,100071.66
2022-12-03T12:05:32.568Z,100054.72
2022-12-03T12:08:02.791Z,100070.91
2022-12-03T12:10:47.451Z,100062.00
2022-12-03T12:13:57.574Z,100059.19
2022-12-03T12:16:51.240Z,100054.53
2022-12-03T12:19:42.980Z,100055.34
2022-12-03T12:22:32.690Z,100049.47
2022-12-03T12:25:03.429Z,100044.81
2022-12-03T12:27:37.402Z,100051.72
2022-12-03T12:30:14.759Z,100048.06
2022-12-03T12:32:47.762Z,100045.66
2022-12-03T12:35:20.539Z,100044.47
2022-12-03T12:37:58.935Z,100047.88
2022-12-03T12:40:30.697Z,100033.13
2022-12-03T12:43:05.338Z,100033.56
2022-12-03T12:45:42.357Z,100033.56
2022-12-03T12:48:24.475Z,100041.44
2022-12-03T12:51:00.535Z,100025.66
2022-12-03T12:53:32.721Z,100027.91
2022-12-03T12:56:02.969Z,100024.25
2022-12-03T12:58:35.544Z,100027.69
2022-12-03T13:01:13.542Z,100024.25
2022-12-03T13:03:41.968Z,100032.75
2022-12-03T13:06:15.675Z,100034.56
2022-12-03T13:08:47.307Z,100012.31
2022-12-03T13:11:35.473Z,100009.91
2022-12-03T13:14:12.358Z,100012.72
2022-12-03T13:16:43.849Z,100015.34
2022-12-03T13:19:24.755Z,100013.75
2022-12-03T13:21:55.166Z,100020.59
2022-12-03T13:24:32.247Z,100019.00
2022-12-03T13:27:04.445Z,100004.84
2022-12-03T13:29:33.635Z,100004.66
2022-12-03T13:32:15.630Z,100006.06
2022-12-03T13:34:45.155Z,100006.88
2022-12-03T13:37:20.784Z,100001.63
2022-12-03T13:39:52.557Z,99999.81
2022-12-03T13:42:42.274Z,100004.84
2022-12-03T13:45:33.263Z,99994.53
2022-12-03T13:48:06.979Z,99994.53
2022-12-03T13:50:38.097Z,99993.31
2022-12-03T13:53:17.173Z,99995.75
2022-12-03T13:55:48.340Z,99991.09
2022-12-03T13:58:16.737Z,99994.13
2022-12-03T14:00:45.195Z,99996.38
2022-12-03T14:03:14.985Z,99986.06
2022-12-03T14:05:43.348Z,99980.00
2022-12-03T14:08:11.689Z,99988.28
2022-12-03T14:10:40.120Z,99985.44
2022-12-03T14:13:08.491Z,99981.63
2022-12-03T14:15:38.075Z,99979.00
2022-12-03T14:18:06.459Z,99984.03
2022-12-03T14:20:36.544Z,99986.66
2022-12-03T14:23:07.307Z,99983.22
2022-12-03T14:25:35.767Z,99982.41
2022-12-03T14:28:08.545Z,99991.94
2022-12-03T14:30:37.201Z,99983.84
2022-12-03T14:33:05.952Z,99986.25
2022-12-03T14:35:35.723Z,99988.88
2022-12-03T14:38:04.160Z,99995.16
2022-12-03T14:40:32.536Z,99990.91
2022-12-03T14:43:00.854Z,99995.16
2022-12-03T14:45:30.055Z,99997.19
2022-12-03T14:48:01.519Z,99989.50
2022-12-03T14:50:30.207Z,100000.03
2022-12-03T14:52:59.946Z,99996.78
2022-12-03T14:55:28.314Z,100001.22
2022-12-03T14:57:56.668Z,100001.44
2022-12-03T15:00:25.236Z,99995.38
2022-12-03T15:02:53.615Z,99999.63
2022-12-03T15:05:27.904Z,99996.38
2022-12-03T15:07:56.937Z,99993.72
2022-12-03T15:10:26.751Z,99987.50
2022-12-03T15:12:55.089Z,99997.00
2022-12-03T15:15:23.436Z,99995.38
2022-12-03T15:17:51.771Z,100000.00
2022-12-03T15:20:20.259Z,100005.91
2022-12-03T15:22:48.574Z,100003.28
2022-12-03T15:25:24.201Z,100006.50
2022-12-03T15:27:54.065Z,100002.84
2022-12-03T15:30:22.445Z,100002.84
2022-12-03T15:32:50.855Z,100012.97
2022-12-03T15:35:19.213Z,100004.88
2022-12-03T15:37:47.715Z,100004.88
2022-12-03T15:40:16.468Z,100019.84
2022-12-03T15:42:44.761Z,100006.50
2022-12-03T15:45:15.572Z,100001.25
2022-12-03T15:47:44.092Z,99998.59
2022-12-03T15:50:13.428Z,100002.84
2022-12-03T15:52:41.906Z,99999.19
2022-12-03T15:55:11.407Z,100001.03
2022-12-03T15:57:39.754Z,100002.03
2022-12-03T16:00:11.359Z,99996.78
2022-12-03T16:02:49.013Z,99988.09
2022-12-03T16:05:19.582Z,99989.09
2022-12-03T16:07:48.010Z,99986.25
2022-12-03T16:10:17.639Z,99988.28
2022-12-03T16:12:46.005Z,99985.66
2022-12-03T16:15:14.376Z,99985.66
2022-12-03T16:17:44.064Z,99985.66
2022-12-03T16:20:13.491Z,99983.00
2022-12-03T16:22:41.842Z,99984.03
2022-12-03T16:25:10.609Z,99984.25
2022-12-03T16:27:38.986Z,99981.22
2022-12-03T16:30:09.435Z,99970.06
2022-12-03T16:32:37.830Z,99983.22
2022-12-03T16:35:08.439Z,99982.22
2022-12-03T16:37:36.769Z,99983.03
2022-12-03T16:40:06.023Z,99984.44
2022-12-03T16:42:34.384Z,99981.63
2022-12-03T16:45:20.226Z,99982.41
2022-12-03T16:47:48.580Z,99980.19
2022-12-03T16:50:25.898Z,99983.03
2022-12-03T16:52:57.652Z,99988.69
2022-12-03T16:55:26.348Z,99986.25
2022-12-03T16:57:54.683Z,99978.97
2022-12-03T17:00:23.282Z,99980.16
2022-12-03T17:02:51.663Z,99985.63
2022-12-03T17:05:21.420Z,99977.13
2022-12-03T17:07:49.778Z,99978.78
2022-12-03T17:10:18.339Z,99973.69
2022-12-03T17:13:09.225Z,99971.88
2022-12-03T17:15:35.448Z,99977.13
2022-12-03T17:18:04.587Z,99975.72
2022-12-03T17:20:34.799Z,99964.59
2022-12-03T17:23:03.451Z,99965.00
2022-12-03T17:25:32.209Z,99970.47
2022-12-03T17:28:00.838Z,99973.28
2022-12-03T17:30:29.502Z,99965.78
2022-12-03T17:32:57.931Z,99970.88
2022-12-03T17:35:26.809Z,99965.00
2022-12-03T17:37:56.719Z,99966.22
2022-12-03T17:40:25.282Z,99962.16
2022-12-03T17:42:53.751Z,99954.88
2022-12-03T17:45:22.176Z,99962.56
2022-12-03T17:47:50.710Z,99963.75
2022-12-03T17:50:19.415Z,99961.75
2022-12-03T17:52:47.892Z,99961.34
2022-12-03T17:55:26.452Z,99961.97
2022-12-03T17:57:59.791Z,99960.94
2022-12-03T18:00:28.243Z,99961.53
2022-12-03T18:02:56.707Z,99948.81
2022-12-03T18:05:25.263Z,99952.03
2022-12-03T18:07:54.137Z,99958.34
2022-12-03T18:10:23.998Z,99959.13
2022-12-03T18:12:54.863Z,99951.44
2022-12-03T18:15:26.837Z,99951.44
2022-12-03T18:17:55.334Z,99948.22
2022-12-03T18:20:23.705Z,99949.22
2022-12-03T18:22:52.613Z,99957.13
2022-12-03T18:25:21.314Z,99956.28
2022-12-03T18:27:51.174Z,99947.41
2022-12-03T18:30:19.666Z,99945.19
2022-12-03T18:32:48.943Z,99954.28
2022-12-03T18:35:18.072Z,99943.75
2022-12-03T18:37:46.617Z,99951.88
2022-12-03T18:40:20.937Z,99955.47
2022-12-03T18:42:50.802Z,99949.00
2022-12-03T18:45:19.734Z,99955.88
2022-12-03T18:47:48.218Z,99943.97
2022-12-03T18:50:16.676Z,99938.47
2022-12-03T18:52:45.049Z,99944.94
2022-12-03T18:55:19.673Z,99947.00
2022-12-03T18:57:48.205Z,99937.88
2022-12-03T19:00:18.952Z,99944.34
2022-12-03T19:03:03.116Z,99936.66
2022-12-03T19:05:33.629Z,99935.03
2022-12-03T19:08:02.387Z,99928.38
2022-12-03T19:10:31.015Z,99931.22
2022-12-03T19:12:59.781Z,99926.97
2022-12-03T19:15:29.571Z,99931.22
2022-12-03T19:17:57.939Z,99929.41
2022-12-03T19:20:26.288Z,99939.28
2022-12-03T19:22:54.668Z,99945.38
2022-12-03T19:25:23.084Z,99932.00
2022-12-03T19:27:55.040Z,99935.03
2022-12-03T19:30:23.523Z,99940.28
2022-12-03T19:32:53.248Z,99938.06
2022-12-03T19:35:22.389Z,99937.47
2022-12-03T19:37:51.266Z,99942.72
2022-12-03T19:40:20.658Z,99954.84
2022-12-03T19:42:49.083Z,99944.31
2022-12-03T19:45:17.643Z,99955.22
2022-12-03T19:47:46.108Z,99949.78
2022-12-03T19:50:22.659Z,99952.59
2022-12-03T19:52:51.574Z,99955.47
2022-12-03T19:55:20.665Z,99950.19
2022-12-03T19:57:49.208Z,99947.56
2022-12-03T20:00:18.280Z,99953.81
2022-12-03T20:02:49.830Z,99941.69
2022-12-03T20:05:19.615Z,99944.13
2022-12-03T20:07:48.108Z,99938.88
2022-12-03T20:10:16.991Z,99937.06
2022-12-03T20:12:45.764Z,99932.41
2022-12-03T20:15:14.897Z,99932.41
2022-12-03T20:17:43.272Z,99931.81
2022-12-03T20:20:12.788Z,99931.56
2022-12-03T20:22:42.572Z,99932.41
2022-12-03T20:25:11.851Z,99927.13
2022-12-03T20:27:40.691Z,99919.03
2022-12-03T20:30:11.366Z,99927.53
2022-12-03T20:32:45.030Z,99927.91
2022-12-03T20:35:16.789Z,99927.91
2022-12-03T20:37:46.603Z,99920.25
2022-12-03T20:40:15.090Z,99921.66
2022-12-03T20:42:47.983Z,99924.50
2022-12-03T20:45:16.414Z,99925.50
2022-12-03T20:47:44.772Z,99929.16
2022-12-03T20:50:13.213Z,99920.47
2022-12-03T20:52:57.673Z,99923.88
2022-12-03T20:55:31.254Z,99921.25
2022-12-03T20:57:59.736Z,99912.56
2022-12-03T21:00:28.731Z,99918.84
2022-12-03T21:02:59.753Z,99918.84
2022-12-03T21:05:28.313Z,99915.00
2022-12-03T21:07:56.710Z,99917.44
2022-12-03T21:10:44.486Z,99922.50
2022-12-03T21:13:16.158Z,99909.34
2022-12-03T21:15:46.311Z,99916.22
2022-12-03T21:18:17.275Z,99911.78
2022-12-03T21:20:48.116Z,99908.97
2022-12-03T21:23:16.539Z,99915.66
2022-12-03T21:25:44.907Z,99905.94
2022-12-03T21:28:14.666Z,99909.78
2022-12-03T21:30:43.067Z,99907.34
2022-12-03T21:33:11.702Z,99898.84
2022-12-03T21:35:40.911Z,99901.25
2022-12-03T21:38:09.319Z,99892.97
2022-12-03T21:40:37.699Z,99892.19
2022-12-03T21:43:06.078Z,99891.16
2022-12-03T21:45:35.866Z,99894.00
2022-12-03T21:48:04.477Z,99893.19
2022-12-03T21:50:33.210Z,99898.63
2022-12-03T21:53:01.641Z,99903.50
2022-12-03T21:55:30.162Z,99908.75
2022-12-03T21:57:58.506Z,99903.72
2022-12-03T22:00:27.271Z,99906.50
2022-12-03T22:02:57.108Z,99895.19
2022-12-03T22:05:25.529Z,99906.72
2022-12-03T22:07:54.030Z,99904.72
2022-12-03T22:10:22.446Z,99903.09
2022-12-03T22:12:50.867Z,99895.41
2022-12-03T22:15:19.752Z,99899.47
2022-12-03T22:17:48.741Z,99898.44
2022-12-03T22:20:18.762Z,99894.38
2022-12-03T22:22:47.178Z,99900.44
2022-12-03T22:25:15.793Z,99896.19
2022-12-03T22:27:44.156Z,99898.25
2022-12-03T22:30:13.081Z,99894.41
2022-12-03T22:32:41.538Z,99898.41
2022-12-03T22:35:10.498Z,99888.91
2022-12-03T22:37:40.264Z,99891.34
2022-12-03T22:40:09.694Z,99888.69
2022-12-03T22:42:49.329Z,99895.16
2022-12-03T22:45:19.248Z,99894.13
2022-12-03T22:47:47.620Z,99880.34
2022-12-03T22:50:16.136Z,99906.44
2022-12-03T22:52:45.864Z,99901.34
2022-12-03T22:55:14.621Z,99916.13
2022-12-03T22:57:43.044Z,99911.88
2022-12-03T23:00:13.277Z,99905.81
2022-12-03T23:02:41.722Z,99906.81
2022-12-03T23:05:10.491Z,99891.25
2022-12-03T23:07:38.915Z,99880.97
2022-12-03T23:10:10.565Z,99863.19
2022-12-03T23:12:39.323Z,99859.59
2022-12-03T23:15:23.047Z,99847.06
2022-12-03T23:17:51.398Z,99853.91
2022-12-03T23:20:19.934Z,99848.25
2022-12-03T23:22:49.196Z,99840.38
2022-12-03T23:25:17.981Z,99841.00
2022-12-03T23:27:47.400Z,99848.25
2022-12-03T23:30:17.558Z,99856.75
2022-12-03T23:32:47.416Z,99852.94
2022-12-03T23:35:15.811Z,99850.31
2022-12-03T23:37:45.010Z,99850.50
2022-12-03T23:40:15.048Z,99841.00
2022-12-03T23:42:43.469Z,99837.56
2022-12-03T23:45:12.552Z,99849.06
2022-12-03T23:47:41.037Z,99839.16
2022-12-03T23:50:12.264Z,99834.53
2022-12-03T23:52:40.689Z,99848.03
2022-12-03T23:55:10.506Z,99848.66
2022-12-03T23:57:39.243Z,99872.28
